createdAt,value
2017-09-29T00:00:36.613Z,87.55
2017-09-29T00:01:17.205Z,87.65
2017-09-29T00:01:58.131Z,87.37
2017-09-29T00:02:38.801Z,87.65
2017-09-29T00:03:19.603Z,87.65
2017-09-29T00:04:00.313Z,87.55
2017-09-29T00:04:40.953Z,87.46
2017-09-29T00:05:21.639Z,87.65
2017-09-29T00:06:02.379Z,88.13
2017-09-29T00:06:42.971Z,87.55
2017-09-29T00:07:23.725Z,87.46
2017-09-29T00:08:04.301Z,87.65
2017-09-29T00:08:45.204Z,88.03
2017-09-29T00:09:25.912Z,87.37
2017-09-29T00:10:06.775Z,87.94
2017-09-29T00:10:47.328Z,87.84
2017-09-29T00:11:27.921Z,87.65
2017-09-29T00:12:08.648Z,87.84
2017-09-29T00:12:49.947Z,87.94
2017-09-29T00:13:30.742Z,87.37
2017-09-29T00:14:11.409Z,88.13
2017-09-29T00:14:52.061Z,87.74
2017-09-29T00:15:32.857Z,87.9
2017-09-29T00:16:13.448Z,88.32
2017-09-29T00:16:54.370Z,87.74
2017-09-29T00:17:35.139Z,87.84
2017-09-29T00:18:15.845Z,87.84
2017-09-29T00:18:56.469Z,87.74
2017-09-29T00:19:37.326Z,87.74
2017-09-29T00:20:18.013Z,87.65
2017-09-29T00:20:58.653Z,87.74
2017-09-29T00:21:39.208Z,87.74
2017-09-29T00:22:20.275Z,87.65
2017-09-29T00:23:01.087Z,87.84
2017-09-29T00:23:42.010Z,87.94
2017-09-29T00:24:22.664Z,87.7
2017-09-29T00:25:03.309Z,88.03
2017-09-29T00:25:43.955Z,88.03
2017-09-29T00:26:24.624Z,88.13
2017-09-29T00:27:05.186Z,87.7
2017-09-29T00:27:45.765Z,87.7
2017-09-29T00:28:26.368Z,87.74
2017-09-29T00:29:06.947Z,87.61
2017-09-29T00:29:47.549Z,87.94
2017-09-29T00:30:28.142Z,87.7
2017-09-29T00:31:08.717Z,87.99
2017-09-29T00:31:49.277Z,87.74
2017-09-29T00:32:29.849Z,87.8
2017-09-29T00:33:10.459Z,87.8
2017-09-29T00:33:51.047Z,87.99
2017-09-29T00:34:31.705Z,87.7
2017-09-29T00:35:12.318Z,88.18
2017-09-29T00:35:52.973Z,88.09
2017-09-29T00:36:33.616Z,88.09
2017-09-29T00:37:14.449Z,88.09
2017-09-29T00:37:55.217Z,88.56
2017-09-29T00:38:35.907Z,88.18
2017-09-29T00:39:16.611Z,88.37
2017-09-29T00:39:57.269Z,88.09
2017-09-29T00:40:37.939Z,87.9
2017-09-29T00:41:18.632Z,88.09
2017-09-29T00:41:59.217Z,88.28
2017-09-29T00:42:39.815Z,88.37
2017-09-29T00:43:20.578Z,88.18
2017-09-29T00:44:01.539Z,88.37
2017-09-29T00:44:42.079Z,88.37
2017-09-29T00:45:22.723Z,88.09
2017-09-29T00:46:03.851Z,88.28
2017-09-29T00:46:44.696Z,88.28
2017-09-29T00:47:25.357Z,88.28
2017-09-29T00:48:06.060Z,88.37
2017-09-29T00:48:46.815Z,88.09
2017-09-29T00:49:27.661Z,88.09
2017-09-29T00:50:08.435Z,88.09
2017-09-29T00:50:49.037Z,88.37
2017-09-29T00:51:29.681Z,88.09
2017-09-29T00:52:10.275Z,88.37
2017-09-29T00:52:51.066Z,88.09
2017-09-29T00:53:31.683Z,88.28
2017-09-29T00:54:12.440Z,88.09
2017-09-29T00:54:53.118Z,87.99
2017-09-29T00:55:33.769Z,88.18
2017-09-29T00:56:14.998Z,88.09
2017-09-29T00:56:55.906Z,88.28
2017-09-29T00:57:36.585Z,88.09
2017-09-29T00:58:17.387Z,88.09
2017-09-29T00:58:58.249Z,88.09
2017-09-29T00:59:39.021Z,88.37
2017-09-29T01:00:19.861Z,88.28
2017-09-29T01:01:01.080Z,88.18
2017-09-29T01:01:42.301Z,88.09
2017-09-29T01:02:23.000Z,88.09
2017-09-29T01:03:04.042Z,88.28
2017-09-29T01:03:44.718Z,87.7
2017-09-29T01:04:25.483Z,88.18
2017-09-29T01:05:06.271Z,88.09
2017-09-29T01:05:47.084Z,88.28
2017-09-29T01:06:27.817Z,88.09
2017-09-29T01:07:08.463Z,87.9
2017-09-29T01:07:49.381Z,88.66
2017-09-29T01:08:30.037Z,87.99
2017-09-29T01:09:10.795Z,88.28
2017-09-29T01:09:51.569Z,88.09
2017-09-29T01:10:32.510Z,88.09
2017-09-29T01:11:13.285Z,88.56
2017-09-29T01:11:54.087Z,88.47
2017-09-29T01:12:34.745Z,88.56
2017-09-29T01:13:15.503Z,88.76
2017-09-29T01:13:56.236Z,88.28
2017-09-29T01:14:36.845Z,88.66
2017-09-29T01:15:17.470Z,88.47
2017-09-29T01:15:58.104Z,88.47
2017-09-29T01:16:38.706Z,88.76
2017-09-29T01:17:19.309Z,88.95
2017-09-29T01:17:59.906Z,88.56
2017-09-29T01:18:40.490Z,88.47
2017-09-29T01:19:21.072Z,88.66
2017-09-29T01:20:01.657Z,88.47
2017-09-29T01:20:42.241Z,87.99
2017-09-29T01:21:22.822Z,88.09
2017-09-29T01:22:03.423Z,87.99
2017-09-29T01:22:44.026Z,88.66
2017-09-29T01:23:24.623Z,88.37
2017-09-29T01:24:05.224Z,88.09
2017-09-29T01:24:45.797Z,88.09
2017-09-29T01:25:26.374Z,88.09
2017-09-29T01:26:06.982Z,88.09
2017-09-29T01:26:47.592Z,88.09
2017-09-29T01:27:28.166Z,88.28
2017-09-29T01:28:08.768Z,88.37
2017-09-29T01:28:49.408Z,88.09
2017-09-29T01:29:29.991Z,88.09
2017-09-29T01:30:10.601Z,88.47
2017-09-29T01:30:51.211Z,88.66
2017-09-29T01:31:31.788Z,88.37
2017-09-29T01:32:12.390Z,88.37
2017-09-29T01:32:52.989Z,87.99
2017-09-29T01:33:33.605Z,87.99
2017-09-29T01:34:14.215Z,87.9
2017-09-29T01:34:54.802Z,87.99
2017-09-29T01:35:35.459Z,88.66
2017-09-29T01:36:16.041Z,88.37
2017-09-29T01:36:56.632Z,88.47
2017-09-29T01:37:37.201Z,88.47
2017-09-29T01:38:17.789Z,88.28
2017-09-29T01:38:58.375Z,88.47
2017-09-29T01:39:38.958Z,88.47
2017-09-29T01:40:19.545Z,88.47
2017-09-29T01:41:00.120Z,88.47
2017-09-29T01:41:40.703Z,88.47
2017-09-29T01:42:21.270Z,88.56
2017-09-29T01:43:01.843Z,88.56
2017-09-29T01:43:42.449Z,88.47
2017-09-29T01:44:23.040Z,88.66
2017-09-29T01:45:03.625Z,88.37
2017-09-29T01:45:44.193Z,88.66
2017-09-29T01:46:24.774Z,88.28
2017-09-29T01:47:05.468Z,87.9
2017-09-29T01:47:46.149Z,87.99
2017-09-29T01:48:26.732Z,88.66
2017-09-29T01:49:07.344Z,88.47
2017-09-29T01:49:47.938Z,88.85
2017-09-29T01:50:28.520Z,88.95
2017-09-29T01:51:09.089Z,88.66
2017-09-29T01:51:49.689Z,88.66
2017-09-29T01:52:30.277Z,88.47
2017-09-29T01:53:10.867Z,89.04
2017-09-29T01:53:51.506Z,88.47
2017-09-29T01:54:32.109Z,88.76
2017-09-29T01:55:12.718Z,88.28
2017-09-29T01:55:53.295Z,88.47
2017-09-29T01:56:33.863Z,88.66
2017-09-29T01:57:14.456Z,88.85
2017-09-29T01:57:55.069Z,88.28
2017-09-29T01:58:35.641Z,88.85
2017-09-29T01:59:16.211Z,88.66
2017-09-29T01:59:56.777Z,88.47
2017-09-29T02:00:37.369Z,88.85
2017-09-29T02:01:18.010Z,88.56
2017-09-29T02:01:58.567Z,88.95
2017-09-29T02:02:39.155Z,88.95
2017-09-29T02:03:19.745Z,88.28
2017-09-29T02:04:00.335Z,88.47
2017-09-29T02:04:40.932Z,88.47
2017-09-29T02:05:21.514Z,88.18
2017-09-29T02:06:02.092Z,88.47
2017-09-29T02:06:42.673Z,88.18
2017-09-29T02:07:23.267Z,88.09
2017-09-29T02:08:03.837Z,88.37
2017-09-29T02:08:44.439Z,88.28
2017-09-29T02:09:25.026Z,88.28
2017-09-29T02:10:05.646Z,88.18
2017-09-29T02:10:46.231Z,88.09
2017-09-29T02:11:26.851Z,88.18
2017-09-29T02:12:07.455Z,88.18
2017-09-29T02:12:48.053Z,88.09
2017-09-29T02:13:28.644Z,88.18
2017-09-29T02:14:09.267Z,88.28
2017-09-29T02:14:49.864Z,87.99
2017-09-29T02:15:30.464Z,87.41
2017-09-29T02:16:11.014Z,87.7
2017-09-29T02:16:51.619Z,88.09
2017-09-29T02:17:32.220Z,87.99
2017-09-29T02:18:13.128Z,87.99
2017-09-29T02:18:54.009Z,88.09
2017-09-29T02:19:35.004Z,87.8
2017-09-29T02:20:15.925Z,87.8
2017-09-29T02:20:56.771Z,87.7
2017-09-29T02:21:37.494Z,87.41
2017-09-29T02:22:18.475Z,88.09
2017-09-29T02:22:59.467Z,87.9
2017-09-29T02:23:40.373Z,87.99
2017-09-29T02:24:21.228Z,87.99
2017-09-29T02:25:01.798Z,87.61
2017-09-29T02:25:42.374Z,87.9
2017-09-29T02:26:22.926Z,87.7
2017-09-29T02:27:03.498Z,87.7
2017-09-29T02:27:44.059Z,87.99
2017-09-29T02:28:24.642Z,87.7
2017-09-29T02:29:05.215Z,87.7
2017-09-29T02:29:45.799Z,87.9
2017-09-29T02:30:26.371Z,87.8
2017-09-29T02:31:06.974Z,87.9
2017-09-29T02:31:47.533Z,87.7
2017-09-29T02:32:28.124Z,87.9
2017-09-29T02:33:08.718Z,87.61
2017-09-29T02:33:49.334Z,87.8
2017-09-29T02:34:29.914Z,87.8
2017-09-29T02:35:10.546Z,87.99
2017-09-29T02:35:51.122Z,87.9
2017-09-29T02:36:31.742Z,87.7
2017-09-29T02:37:12.399Z,87.8
2017-09-29T02:37:53.017Z,87.8
2017-09-29T02:38:33.572Z,87.8
2017-09-29T02:39:14.160Z,87.9
2017-09-29T02:39:54.756Z,87.61
2017-09-29T02:40:35.359Z,87.56
2017-09-29T02:41:15.957Z,87.7
2017-09-29T02:41:56.534Z,87.95
2017-09-29T02:42:37.147Z,88.18
2017-09-29T02:43:17.754Z,87.9
2017-09-29T02:43:58.351Z,87.8
2017-09-29T02:44:38.959Z,87.8
2017-09-29T02:45:19.559Z,87.8
2017-09-29T02:46:00.129Z,87.47
2017-09-29T02:46:40.732Z,87.8
2017-09-29T02:47:21.325Z,87.56
2017-09-29T02:48:01.894Z,87.7
2017-09-29T02:48:42.484Z,87.8
2017-09-29T02:49:23.068Z,87.7
2017-09-29T02:50:03.635Z,87.8
2017-09-29T02:50:44.222Z,87.8
2017-09-29T02:51:24.819Z,87.7
2017-09-29T02:52:05.388Z,87.66
2017-09-29T02:52:46.085Z,87.66
2017-09-29T02:53:26.734Z,87.7
2017-09-29T02:54:07.348Z,87.61
2017-09-29T02:54:47.963Z,87.8
2017-09-29T02:55:28.556Z,87.7
2017-09-29T02:56:09.108Z,87.99
2017-09-29T02:56:49.724Z,87.99
2017-09-29T02:57:30.323Z,87.47
2017-09-29T02:58:10.884Z,87.37
2017-09-29T02:58:51.516Z,87.85
2017-09-29T02:59:32.095Z,87.41
2017-09-29T03:00:12.704Z,87.51
2017-09-29T03:00:53.277Z,87.41
2017-09-29T03:01:33.879Z,87.32
2017-09-29T03:02:14.476Z,87.61
2017-09-29T03:02:55.055Z,87.32
2017-09-29T03:03:35.648Z,87.7
2017-09-29T03:04:16.263Z,87.61
2017-09-29T03:04:56.934Z,87.51
2017-09-29T03:05:37.544Z,87.32
2017-09-29T03:06:18.162Z,87.61
2017-09-29T03:06:58.779Z,87.41
2017-09-29T03:07:39.359Z,87.27
2017-09-29T03:08:19.990Z,87.13
2017-09-29T03:09:00.562Z,87.61
2017-09-29T03:09:41.196Z,87.51
2017-09-29T03:10:21.773Z,87.7
2017-09-29T03:11:02.358Z,87.47
2017-09-29T03:11:42.984Z,87.56
2017-09-29T03:12:23.584Z,87.56
2017-09-29T03:13:04.179Z,87.32
2017-09-29T03:13:44.785Z,87.66
2017-09-29T03:14:25.389Z,87.27
2017-09-29T03:15:05.952Z,87.37
2017-09-29T03:15:46.528Z,87.32
2017-09-29T03:16:27.119Z,87.47
2017-09-29T03:17:07.747Z,87.56
2017-09-29T03:17:48.352Z,87.51
2017-09-29T03:18:28.998Z,87.37
2017-09-29T03:19:09.582Z,87.32
2017-09-29T03:19:50.211Z,87.56
2017-09-29T03:20:30.828Z,87.37
2017-09-29T03:21:11.440Z,87.61
2017-09-29T03:21:52.016Z,87.32
2017-09-29T03:22:32.608Z,87.56
2017-09-29T03:23:13.195Z,87.56
2017-09-29T03:23:53.763Z,87.66
2017-09-29T03:24:34.332Z,87.56
2017-09-29T03:25:14.918Z,87.56
2017-09-29T03:25:55.481Z,87.66
2017-09-29T03:26:36.132Z,87.56
2017-09-29T03:27:16.685Z,87.56
2017-09-29T03:27:57.279Z,87.66
2017-09-29T03:28:37.855Z,87.47
2017-09-29T03:29:18.432Z,87.47
2017-09-29T03:29:59.034Z,87.37
2017-09-29T03:30:39.701Z,87.66
2017-09-29T03:31:20.288Z,87.18
2017-09-29T03:32:00.912Z,87.08
2017-09-29T03:32:41.479Z,87.27
2017-09-29T03:33:22.101Z,87.66
2017-09-29T03:34:02.747Z,87.27
2017-09-29T03:34:43.371Z,87.27
2017-09-29T03:35:23.940Z,87.66
2017-09-29T03:36:04.604Z,87.66
2017-09-29T03:36:45.217Z,87.56
2017-09-29T03:37:25.790Z,87.56
2017-09-29T03:38:06.440Z,87.66
2017-09-29T03:38:47.024Z,87.27
2017-09-29T03:39:27.613Z,87.37
2017-09-29T03:40:08.221Z,87.66
2017-09-29T03:40:48.804Z,87.56
2017-09-29T03:41:29.378Z,87.37
2017-09-29T03:42:10.018Z,87.37
2017-09-29T03:42:50.595Z,87.18
2017-09-29T03:43:31.175Z,87.27
2017-09-29T03:44:11.750Z,87.18
2017-09-29T03:44:52.340Z,87.27
2017-09-29T03:45:32.932Z,86.99
2017-09-29T03:46:13.511Z,87.56
2017-09-29T03:46:54.070Z,87.56
2017-09-29T03:47:34.709Z,87.18
2017-09-29T03:48:15.289Z,87.66
2017-09-29T03:48:55.889Z,87.18
2017-09-29T03:49:36.505Z,87.47
2017-09-29T03:50:17.085Z,87.95
2017-09-29T03:50:57.639Z,87.85
2017-09-29T03:51:38.250Z,87.76
2017-09-29T03:52:18.845Z,87.76
2017-09-29T03:52:59.428Z,87.76
2017-09-29T03:53:40.010Z,87.56
2017-09-29T03:54:20.615Z,87.95
2017-09-29T03:55:01.210Z,87.95
2017-09-29T03:55:41.805Z,87.66
2017-09-29T03:56:22.428Z,87.37
2017-09-29T03:57:03.028Z,87.37
2017-09-29T03:57:43.621Z,87.66
2017-09-29T03:58:24.206Z,87.27
2017-09-29T03:59:04.830Z,87.47
2017-09-29T03:59:45.445Z,87.47
2017-09-29T04:00:26.087Z,87.56
2017-09-29T04:01:06.664Z,87.47
2017-09-29T04:01:47.267Z,87.27
2017-09-29T04:02:27.899Z,87.37
2017-09-29T04:03:08.452Z,87.47
2017-09-29T04:03:49.033Z,87.37
2017-09-29T04:04:29.617Z,87.47
2017-09-29T04:05:10.197Z,87.08
2017-09-29T04:05:50.789Z,87.56
2017-09-29T04:06:31.366Z,87.76
2017-09-29T04:07:11.984Z,87.76
2017-09-29T04:07:52.575Z,87.76
2017-09-29T04:08:33.150Z,88.13
2017-09-29T04:09:13.741Z,87.62
2017-09-29T04:09:54.352Z,87.56
2017-09-29T04:10:34.938Z,87.76
2017-09-29T04:11:15.500Z,87.71
2017-09-29T04:11:56.084Z,87.76
2017-09-29T04:12:36.696Z,87.56
2017-09-29T04:13:17.268Z,87.66
2017-09-29T04:13:57.842Z,87.56
2017-09-29T04:14:38.438Z,87.76
2017-09-29T04:15:19.026Z,87.71
2017-09-29T04:15:59.637Z,88
2017-09-29T04:16:40.203Z,87.56
2017-09-29T04:17:20.783Z,87.76
2017-09-29T04:18:01.362Z,87.76
2017-09-29T04:18:41.965Z,87.81
2017-09-29T04:19:22.609Z,87.56
2017-09-29T04:20:03.186Z,88.04
2017-09-29T04:20:43.756Z,87.47
2017-09-29T04:21:24.367Z,87.47
2017-09-29T04:22:04.968Z,88.04
2017-09-29T04:22:45.580Z,87.52
2017-09-29T04:23:26.170Z,87.66
2017-09-29T04:24:06.728Z,87.37
2017-09-29T04:24:47.302Z,87.56
2017-09-29T04:25:27.887Z,87.85
2017-09-29T04:26:08.547Z,87.37
2017-09-29T04:26:49.118Z,87.27
2017-09-29T04:27:29.741Z,87.56
2017-09-29T04:28:10.349Z,87.47
2017-09-29T04:28:50.938Z,87.66
2017-09-29T04:29:31.550Z,87.27
2017-09-29T04:30:12.150Z,87.27
2017-09-29T04:30:52.741Z,87.56
2017-09-29T04:31:33.361Z,87.27
2017-09-29T04:32:13.940Z,87.56
2017-09-29T04:32:54.548Z,87.56
2017-09-29T04:33:35.149Z,86.85
2017-09-29T04:34:15.779Z,87.37
2017-09-29T04:34:56.378Z,87.18
2017-09-29T04:35:36.965Z,86.85
2017-09-29T04:36:17.542Z,86.9
2017-09-29T04:36:58.139Z,86.9
2017-09-29T04:37:38.713Z,86.8
2017-09-29T04:38:19.326Z,86.85
2017-09-29T04:38:59.936Z,86.99
2017-09-29T04:39:40.507Z,86.85
2017-09-29T04:40:21.142Z,87.23
2017-09-29T04:41:01.785Z,87.52
2017-09-29T04:41:42.358Z,87.33
2017-09-29T04:42:22.936Z,87.27
2017-09-29T04:43:03.520Z,87.52
2017-09-29T04:43:44.088Z,87.52
2017-09-29T04:44:24.669Z,87.33
2017-09-29T04:45:05.241Z,87.23
2017-09-29T04:45:45.902Z,87.43
2017-09-29T04:46:27.672Z,87.14
2017-09-29T04:47:08.261Z,87.71
2017-09-29T04:47:48.852Z,87.14
2017-09-29T04:48:29.410Z,87.52
2017-09-29T04:49:10.069Z,87.62
2017-09-29T04:49:50.673Z,86.85
2017-09-29T04:50:31.266Z,86.94
2017-09-29T04:51:11.906Z,87.33
2017-09-29T04:51:52.543Z,87.52
2017-09-29T04:52:33.130Z,87.43
2017-09-29T04:53:13.709Z,87.23
2017-09-29T04:53:54.286Z,87.52
2017-09-29T04:54:35.220Z,87.43
2017-09-29T04:55:16.808Z,87.14
2017-09-29T04:55:57.484Z,87.43
2017-09-29T04:56:38.072Z,87.33
2017-09-29T04:57:18.657Z,87.33
2017-09-29T04:57:59.248Z,87.23
2017-09-29T04:58:39.850Z,87.04
2017-09-29T04:59:20.472Z,87.43
2017-09-29T05:00:01.047Z,87.23
2017-09-29T05:00:41.648Z,87.62
2017-09-29T05:01:22.236Z,87.23
2017-09-29T05:02:02.823Z,86.94
2017-09-29T05:02:43.437Z,86.94
2017-09-29T05:03:24.024Z,86.94
2017-09-29T05:04:04.611Z,86.94
2017-09-29T05:04:45.220Z,87.33
2017-09-29T05:05:25.840Z,87.33
2017-09-29T05:06:06.408Z,87.52
2017-09-29T05:06:46.991Z,87.23
2017-09-29T05:07:27.624Z,87.23
2017-09-29T05:08:08.188Z,87.04
2017-09-29T05:08:48.774Z,86.94
2017-09-29T05:09:29.418Z,87.04
2017-09-29T05:10:10.016Z,86.76
2017-09-29T05:10:50.599Z,86.94
2017-09-29T05:11:31.171Z,86.94
2017-09-29T05:12:11.762Z,87.04
2017-09-29T05:12:52.356Z,87.52
2017-09-29T05:13:32.996Z,87.14
2017-09-29T05:14:13.582Z,87.14
2017-09-29T05:14:54.174Z,86.94
2017-09-29T05:15:34.755Z,87.04
2017-09-29T05:16:15.350Z,87.33
2017-09-29T05:16:55.953Z,86.94
2017-09-29T05:17:36.531Z,86.94
2017-09-29T05:18:17.132Z,86.85
2017-09-29T05:18:57.737Z,86.85
2017-09-29T05:19:38.342Z,87.23
2017-09-29T05:20:18.994Z,87.14
2017-09-29T05:20:59.620Z,86.85
2017-09-29T05:21:40.248Z,87.23
2017-09-29T05:22:20.866Z,87.62
2017-09-29T05:23:01.447Z,88.38
2017-09-29T05:23:42.065Z,89.43
2017-09-29T05:24:22.684Z,90.77
2017-09-29T05:25:03.262Z,89.81
2017-09-29T05:25:43.874Z,90.01
2017-09-29T05:26:24.470Z,89.53
2017-09-29T05:27:05.075Z,88.62
2017-09-29T05:27:45.675Z,88.13
2017-09-29T05:28:26.348Z,89
2017-09-29T05:29:06.986Z,88.9
2017-09-29T05:29:47.578Z,89.58
2017-09-29T05:30:28.247Z,89.58
2017-09-29T05:31:08.844Z,88.52
2017-09-29T05:31:49.516Z,87.95
2017-09-29T05:32:30.111Z,88.04
2017-09-29T05:33:10.711Z,87.66
2017-09-29T05:33:51.308Z,88.28
2017-09-29T05:34:32.471Z,87.8
2017-09-29T05:35:13.079Z,86.94
2017-09-29T05:35:53.704Z,87.03
2017-09-29T05:36:34.333Z,86.84
2017-09-29T05:37:14.924Z,85.98
2017-09-29T05:37:55.730Z,85.31
2017-09-29T05:38:36.337Z,85.69
2017-09-29T05:39:16.970Z,85.41
2017-09-29T05:39:57.608Z,85.5
2017-09-29T05:40:38.211Z,85.31
2017-09-29T05:41:19.011Z,84.45
2017-09-29T05:41:59.615Z,83.53
2017-09-29T05:42:40.223Z,83.34
2017-09-29T05:43:20.840Z,83.15
2017-09-29T05:44:01.480Z,84.01
2017-09-29T05:44:42.087Z,83.82
2017-09-29T05:45:22.729Z,83.63
2017-09-29T05:46:03.381Z,83.82
2017-09-29T05:46:43.953Z,84.2
2017-09-29T05:47:24.557Z,83.34
2017-09-29T05:48:05.207Z,82.86
2017-09-29T05:48:45.802Z,82.96
2017-09-29T05:49:26.381Z,83.34
2017-09-29T05:50:06.982Z,83.63
2017-09-29T05:50:47.559Z,83.44
2017-09-29T05:51:28.152Z,82.96
2017-09-29T05:52:08.747Z,82.09
2017-09-29T05:52:49.344Z,82.09
2017-09-29T05:53:29.937Z,82.19
2017-09-29T05:54:10.566Z,81.81
2017-09-29T05:54:51.108Z,82
2017-09-29T05:55:31.725Z,82.48
2017-09-29T05:56:12.355Z,82.09
2017-09-29T05:56:52.958Z,81.62
2017-09-29T05:57:33.577Z,82.19
2017-09-29T05:58:14.161Z,82
2017-09-29T05:58:54.811Z,81.43
2017-09-29T05:59:35.389Z,81.52
2017-09-29T06:00:15.968Z,81.81
2017-09-29T06:00:56.603Z,81.13
2017-09-29T06:01:37.204Z,81.23
2017-09-29T06:02:17.807Z,80.27
2017-09-29T06:02:58.391Z,80.76
2017-09-29T06:03:38.997Z,80.18
2017-09-29T06:04:19.641Z,80.76
2017-09-29T06:05:00.237Z,81.13
2017-09-29T06:05:40.840Z,80.85
2017-09-29T06:06:21.451Z,80.56
2017-09-29T06:07:02.034Z,80.18
2017-09-29T06:07:42.610Z,79.8
2017-09-29T06:08:23.214Z,79.99
2017-09-29T06:09:03.827Z,79.99
2017-09-29T06:09:44.420Z,80.47
2017-09-29T06:10:25.055Z,80.37
2017-09-29T06:11:05.649Z,80.18
2017-09-29T06:11:46.223Z,80.66
2017-09-29T06:12:26.805Z,80.08
2017-09-29T06:13:07.380Z,79.6
2017-09-29T06:13:47.987Z,80.27
2017-09-29T06:14:28.543Z,80.33
2017-09-29T06:15:09.093Z,81.1
2017-09-29T06:15:49.760Z,80.62
2017-09-29T06:16:30.341Z,81
2017-09-29T06:17:10.904Z,81
2017-09-29T06:17:51.491Z,81
2017-09-29T06:18:32.085Z,80.71
2017-09-29T06:19:12.671Z,80.9
2017-09-29T06:19:53.246Z,81.38
2017-09-29T06:20:33.850Z,81.57
2017-09-29T06:21:14.433Z,81.48
2017-09-29T06:21:55.034Z,81.2
2017-09-29T06:22:35.618Z,81.2
2017-09-29T06:23:16.276Z,81.86
2017-09-29T06:23:56.864Z,81.29
2017-09-29T06:24:37.454Z,81.67
2017-09-29T06:25:18.065Z,81.48
2017-09-29T06:25:58.670Z,81.96
2017-09-29T06:26:39.311Z,82.15
2017-09-29T06:27:19.901Z,82.15
2017-09-29T06:28:00.490Z,82.34
2017-09-29T06:28:41.122Z,82.15
2017-09-29T06:29:21.692Z,81.86
2017-09-29T06:30:02.273Z,81.38
2017-09-29T06:30:42.897Z,81.29
2017-09-29T06:31:23.484Z,80.81
2017-09-29T06:32:04.133Z,80.62
2017-09-29T06:32:44.788Z,80.62
2017-09-29T06:33:25.412Z,81.48
2017-09-29T06:34:06.100Z,81.77
2017-09-29T06:34:46.778Z,81.48
2017-09-29T06:35:27.332Z,81.67
2017-09-29T06:36:07.920Z,81.57
2017-09-29T06:36:48.485Z,81.48
2017-09-29T06:37:29.065Z,81.48
2017-09-29T06:38:09.702Z,81.38
2017-09-29T06:38:50.318Z,80.71
2017-09-29T06:39:30.907Z,81.48
2017-09-29T06:40:11.489Z,81.29
2017-09-29T06:40:52.079Z,81.77
2017-09-29T06:41:32.635Z,80.81
2017-09-29T06:42:13.260Z,81.57
2017-09-29T06:42:53.847Z,81.86
2017-09-29T06:43:34.431Z,81.1
2017-09-29T06:44:15.048Z,80.62
2017-09-29T06:44:55.614Z,80.71
2017-09-29T06:45:36.199Z,81.29
2017-09-29T06:46:16.792Z,80.52
2017-09-29T06:46:57.556Z,80.81
2017-09-29T06:47:38.142Z,80.76
2017-09-29T06:48:18.717Z,81
2017-09-29T06:48:59.287Z,80.81
2017-09-29T06:49:39.861Z,80.66
2017-09-29T06:50:20.424Z,80.94
2017-09-29T06:51:01.015Z,80.85
2017-09-29T06:51:41.583Z,80.76
2017-09-29T06:52:22.183Z,80.37
2017-09-29T06:53:02.748Z,79.89
2017-09-29T06:53:43.352Z,79.75
2017-09-29T06:54:23.917Z,79.95
2017-09-29T06:55:04.520Z,79.66
2017-09-29T06:55:45.114Z,80.14
2017-09-29T06:56:25.714Z,80.33
2017-09-29T06:57:06.299Z,79.95
2017-09-29T06:57:46.937Z,80.04
2017-09-29T06:58:27.550Z,80.33
2017-09-29T06:59:08.161Z,80.71
2017-09-29T06:59:48.747Z,80.81
2017-09-29T07:00:29.402Z,81
2017-09-29T07:01:10.011Z,81.34
2017-09-29T07:01:50.614Z,81.34
2017-09-29T07:02:31.219Z,81.73
2017-09-29T07:03:11.812Z,81.63
2017-09-29T07:03:52.372Z,81.96
2017-09-29T07:04:33.000Z,81.73
2017-09-29T07:05:13.624Z,81.82
2017-09-29T07:05:54.280Z,81.92
2017-09-29T07:06:34.894Z,82.3
2017-09-29T07:07:15.469Z,82.15
2017-09-29T07:07:56.900Z,81.92
2017-09-29T07:08:37.490Z,82.2
2017-09-29T07:09:18.105Z,82.49
2017-09-29T07:09:58.737Z,82.34
2017-09-29T07:10:39.310Z,82.06
2017-09-29T07:11:20.033Z,82.15
2017-09-29T07:12:00.619Z,82.15
2017-09-29T07:12:41.267Z,82.24
2017-09-29T07:13:21.849Z,82.15
2017-09-29T07:14:02.468Z,81.77
2017-09-29T07:14:43.075Z,81.57
2017-09-29T07:15:23.680Z,80.81
2017-09-29T07:16:04.313Z,80.71
2017-09-29T07:16:44.905Z,80.52
2017-09-29T07:17:25.996Z,80.81
2017-09-29T07:18:06.585Z,80.33
2017-09-29T07:18:47.207Z,80.37
2017-09-29T07:19:27.870Z,79.7
2017-09-29T07:20:08.447Z,80.08
2017-09-29T07:20:49.013Z,79.64
2017-09-29T07:21:29.640Z,79.36
2017-09-29T07:22:10.340Z,78.44
2017-09-29T07:22:50.954Z,77
2017-09-29T07:23:31.527Z,76.42
2017-09-29T07:24:12.130Z,75.31
2017-09-29T07:24:52.778Z,74.26
2017-09-29T07:25:33.364Z,74.06
2017-09-29T07:26:13.975Z,73.62
2017-09-29T07:26:54.607Z,73.14
2017-09-29T07:27:35.183Z,72.28
2017-09-29T07:28:15.786Z,71.98
2017-09-29T07:28:56.447Z,71.73
2017-09-29T07:29:37.103Z,70.97
2017-09-29T07:30:17.700Z,69.05
2017-09-29T07:30:58.307Z,68.98
2017-09-29T07:31:38.890Z,68.76
2017-09-29T07:32:19.522Z,68.31
2017-09-29T07:33:00.222Z,68.6
2017-09-29T07:33:40.877Z,68.02
2017-09-29T07:34:21.477Z,66.87
2017-09-29T07:35:02.201Z,66.77
2017-09-29T07:35:42.784Z,66.87
2017-09-29T07:36:23.401Z,66.68
2017-09-29T07:37:03.997Z,66.87
2017-09-29T07:37:44.567Z,66.87
2017-09-29T07:38:25.188Z,67.25
2017-09-29T07:39:05.784Z,67.16
2017-09-29T07:39:46.393Z,66.42
2017-09-29T07:40:26.988Z,66.81
2017-09-29T07:41:07.581Z,66.33
2017-09-29T07:41:48.183Z,66.65
2017-09-29T07:42:28.805Z,66.17
2017-09-29T07:43:09.393Z,65.88
2017-09-29T07:43:49.976Z,65.69
2017-09-29T07:44:30.640Z,65.3
2017-09-29T07:45:11.212Z,64.66
2017-09-29T07:45:51.837Z,64.66
2017-09-29T07:46:32.465Z,64.56
2017-09-29T07:47:13.094Z,63.79
2017-09-29T07:47:53.719Z,63.44
2017-09-29T07:48:34.425Z,62.48
2017-09-29T07:49:14.996Z,62.96
2017-09-29T07:49:55.607Z,62.29
2017-09-29T07:50:36.213Z,62.67
2017-09-29T07:51:16.816Z,62.87
2017-09-29T07:51:57.393Z,62.03
2017-09-29T07:52:38.023Z,61.55
2017-09-29T07:53:18.620Z,61.83
2017-09-29T07:53:59.227Z,61.07
2017-09-29T07:54:39.885Z,60.3
2017-09-29T07:55:20.536Z,59.43
2017-09-29T07:56:01.201Z,60
2017-09-29T07:56:41.779Z,59.81
2017-09-29T07:57:22.388Z,59.81
2017-09-29T07:58:02.978Z,60.1
2017-09-29T07:58:43.631Z,60.39
2017-09-29T07:59:24.221Z,60.42
2017-09-29T08:00:04.819Z,59.17
2017-09-29T08:00:45.451Z,59.14
2017-09-29T08:01:26.040Z,58.78
2017-09-29T08:02:06.654Z,58.75
2017-09-29T08:02:47.262Z,59.52
2017-09-29T08:03:27.879Z,60.39
2017-09-29T08:04:08.520Z,59.84
2017-09-29T08:04:49.172Z,59.94
2017-09-29T08:05:29.820Z,59.17
2017-09-29T08:06:10.432Z,59.17
2017-09-29T08:06:51.121Z,58.78
2017-09-29T08:07:31.719Z,59.07
2017-09-29T08:08:12.327Z,58.78
2017-09-29T08:08:52.951Z,58.69
2017-09-29T08:09:33.579Z,59.17
2017-09-29T08:10:14.197Z,59.17
2017-09-29T08:10:54.853Z,59.07
2017-09-29T08:11:35.459Z,58.69
2017-09-29T08:12:16.047Z,59.36
2017-09-29T08:12:56.669Z,58.49
2017-09-29T08:13:37.267Z,58.65
2017-09-29T08:14:17.855Z,58.4
2017-09-29T08:14:58.503Z,58.78
2017-09-29T08:15:39.097Z,59.45
2017-09-29T08:16:19.740Z,58.75
2017-09-29T08:17:00.364Z,58.56
2017-09-29T08:17:41.002Z,59.04
2017-09-29T08:18:21.609Z,60.87
2017-09-29T08:19:02.231Z,60
2017-09-29T08:19:42.866Z,60.84
2017-09-29T08:20:23.489Z,60.94
2017-09-29T08:21:04.099Z,61.52
2017-09-29T08:21:44.738Z,61.8
2017-09-29T08:22:25.357Z,61.22
2017-09-29T08:23:05.967Z,61.32
2017-09-29T08:23:46.567Z,61.52
2017-09-29T08:24:27.233Z,61.42
2017-09-29T08:25:07.832Z,61.32
2017-09-29T08:25:48.441Z,61.32
2017-09-29T08:26:29.037Z,60.84
2017-09-29T08:27:09.616Z,61.04
2017-09-29T08:27:50.200Z,61.42
2017-09-29T08:28:30.796Z,62.09
2017-09-29T08:29:11.412Z,61.32
2017-09-29T08:29:52.003Z,61.32
2017-09-29T08:30:32.616Z,62.29
2017-09-29T08:31:13.218Z,62.19
2017-09-29T08:31:53.869Z,61.45
2017-09-29T08:32:34.496Z,61.61
2017-09-29T08:33:15.113Z,61.61
2017-09-29T08:33:55.744Z,60.75
2017-09-29T08:34:36.344Z,61.04
2017-09-29T08:35:16.903Z,61.8
2017-09-29T08:35:57.520Z,61.32
2017-09-29T08:36:38.105Z,62.48
2017-09-29T08:37:18.698Z,61.68
2017-09-29T08:37:59.277Z,62.35
2017-09-29T08:38:39.897Z,62.64
2017-09-29T08:39:20.492Z,62.35
2017-09-29T08:40:01.088Z,62.64
2017-09-29T08:40:41.671Z,63.31
2017-09-29T08:41:22.246Z,62.06
2017-09-29T08:42:02.833Z,62.45
2017-09-29T08:42:43.409Z,62.64
2017-09-29T08:43:24.010Z,62.64
2017-09-29T08:44:04.625Z,62.64
2017-09-29T08:44:45.198Z,62.54
2017-09-29T08:45:25.791Z,62.54
2017-09-29T08:46:06.387Z,62.54